logo dgac
Lunes 22 de Abril del 2019
Buscar por aerodromo o helipuerto
Ingrese nombre de aeródromo, localidad o designador OACI:
TAF: TAF SCIE 221640Z 2218/2318 24004KT 8000 OVC010 TX16/2218Z TN08/2311Z BECMG 2219/2221 23008KT 9999 BKN012 BKN020 BECMG 2301/2303 20004KT TEMPO 2308/2312 4000 BR OVC008
TAF del 22/04/2019 a las 16:40 UTC
Período de validez: desde el 22 a las 18:00 UTC hasta el 23 a las 18:00 UTC
Viento: dirección 240 grados, velocidad 4 nudos
Visibilidad: 8000 metros
Nubes: Cubierto a 1000 pies sobre el nivel del aeródromo
Temperatura máxima: 16ºC el 22 a las 18:00 UTC
Temperatura mínima: 8ºC el 23 a las 11:00 UTC
Se espera un cambio entre las 19:00 UTC del 22 y las 21:00 UTC del 22, :
Viento: dirección 230 grados, velocidad 8 nudos
Visibilidad: 10 km o más
Nubes: Nublado a 1200 pies sobre el nivel del aeródromo
Nubes: Nublado a 2000 pies sobre el nivel del aeródromo
Se espera un cambio entre las 01:00 UTC del 23 y las 03:00 UTC del 23, :
Viento: dirección 200 grados, velocidad 4 nudos
Se espera en forma temporal entre las 08:00 UTC del 23 y las 12:00 UTC del 23:
Visibilidad: 4000 metros
Neblina
Nubes: Cubierto a 800 pies sobre el nivel del aeródromo